sensor_id;sensor_type;location;lat;lon;timestamp;temperature;humidity
16655;DHT22;8441;51.344;7.022;2024-03-29T00:02:17;7.60;99.90
16655;DHT22;8441;51.344;7.022;2024-03-29T00:04:43;7.60;99.90
16655;DHT22;8441;51.344;7.022;2024-03-29T00:07:10;7.60;99.90
16655;DHT22;8441;51.344;7.022;2024-03-29T00:09:36;7.60;99.90
16655;DHT22;8441;51.344;7.022;2024-03-29T00:12:02;7.50;99.90
16655;DHT22;8441;51.344;7.022;2024-03-29T00:14:29;7.50;99.90
16655;DHT22;8441;51.344;7.022;2024-03-29T00:16:55;7.50;99.90
16655;DHT22;8441;51.344;7.022;2024-03-29T00:19:22;7.50;99.90
16655;DHT22;8441;51.344;7.022;2024-03-29T00:21:49;7.50;99.90
16655;DHT22;8441;51.344;7.022;2024-03-29T00:24:15;7.50;99.90
16655;DHT22;8441;51.344;7.022;2024-03-29T00:26:41;7.60;99.90
16655;DHT22;8441;51.344;7.022;2024-03-29T00:29:07;7.60;99.90
16655;DHT22;8441;51.344;7.022;2024-03-29T00:31:34;7.70;99.90
16655;DHT22;8441;51.344;7.022;2024-03-29T00:34:00;7.60;99.90
16655;DHT22;8441;51.344;7.022;2024-03-29T00:36:27;7.60;99.90
16655;DHT22;8441;51.344;7.022;2024-03-29T00:38:54;7.50;99.90
16655;DHT22;8441;51.344;7.022;2024-03-29T00:41:20;7.40;99.90
16655;DHT22;8441;51.344;7.022;2024-03-29T00:43:46;7.40;99.90
16655;DHT22;8441;51.344;7.022;2024-03-29T00:46:13;7.40;99.90
16655;DHT22;8441;51.344;7.022;2024-03-29T00:48:39;7.40;99.90
16655;DHT22;8441;51.344;7.022;2024-03-29T00:51:05;7.30;99.90
16655;DHT22;8441;51.344;7.022;2024-03-29T00:53:33;7.40;99.90
16655;DHT22;8441;51.344;7.022;2024-03-29T00:55:59;7.30;99.90
16655;DHT22;8441;51.344;7.022;2024-03-29T00:58:25;7.40;99.90
16655;DHT22;8441;51.344;7.022;2024-03-29T01:00:52;7.40;99.90
16655;DHT22;8441;51.344;7.022;2024-03-29T01:03:18;7.50;99.90
16655;DHT22;8441;51.344;7.022;2024-03-29T01:05:44;7.50;99.90
16655;DHT22;8441;51.344;7.022;2024-03-29T01:08:11;7.50;99.90
16655;DHT22;8441;51.344;7.022;2024-03-29T01:10:38;7.50;99.90
16655;DHT22;8441;51.344;7.022;2024-03-29T01:13:04;7.50;99.90
16655;DHT22;8441;51.344;7.022;2024-03-29T01:15:31;7.70;99.90
16655;DHT22;8441;51.344;7.022;2024-03-29T01:17:57;7.80;99.90
16655;DHT22;8441;51.344;7.022;2024-03-29T01:20:23;7.90;99.90
16655;DHT22;8441;51.344;7.022;2024-03-29T01:22:49;8.00;99.90
16655;DHT22;8441;51.344;7.022;2024-03-29T01:25:16;8.00;99.90
16655;DHT22;8441;51.344;7.022;2024-03-29T01:27:44;7.90;99.90
16655;DHT22;8441;51.344;7.022;2024-03-29T01:30:11;7.90;99.90
16655;DHT22;8441;51.344;7.022;2024-03-29T01:32:37;8.20;99.90
16655;DHT22;8441;51.344;7.022;2024-03-29T01:35:04;8.20;99.90
16655;DHT22;8441;51.344;7.022;2024-03-29T01:37:31;8.20;99.90
16655;DHT22;8441;51.344;7.022;2024-03-29T01:39:57;8.30;99.90
16655;DHT22;8441;51.344;7.022;2024-03-29T01:42:23;8.20;99.90
16655;DHT22;8441;51.344;7.022;2024-03-29T01:44:51;8.20;99.90
16655;DHT22;8441;51.344;7.022;2024-03-29T01:47:18;8.20;99.90
16655;DHT22;8441;51.344;7.022;2024-03-29T01:49:46;8.20;99.90
16655;DHT22;8441;51.344;7.022;2024-03-29T01:52:15;8.20;99.90
16655;DHT22;8441;51.344;7.022;2024-03-29T01:54:44;8.30;99.90
16655;DHT22;8441;51.344;7.022;2024-03-29T01:57:13;8.30;99.90
16655;DHT22;8441;51.344;7.022;2024-03-29T01:59:42;8.30;99.90
16655;DHT22;8441;51.344;7.022;2024-03-29T02:02:11;8.40;99.90
16655;DHT22;8441;51.344;7.022;2024-03-29T02:04:38;8.30;99.90
16655;DHT22;8441;51.344;7.022;2024-03-29T02:07:06;8.30;99.90
16655;DHT22;8441;51.344;7.022;2024-03-29T02:09:33;8.30;99.90
16655;DHT22;8441;51.344;7.022;2024-03-29T02:12:01;8.30;99.90
16655;DHT22;8441;51.344;7.022;2024-03-29T02:14:28;8.20;99.90
16655;DHT22;8441;51.344;7.022;2024-03-29T02:16:55;8.20;99.90
16655;DHT22;8441;51.344;7.022;2024-03-29T02:19:24;8.20;99.90
16655;DHT22;8441;51.344;7.022;2024-03-29T02:21:53;8.30;99.90
16655;DHT22;8441;51.344;7.022;2024-03-29T02:24:24;8.30;99.90
16655;DHT22;8441;51.344;7.022;2024-03-29T02:26:53;8.30;99.90
16655;DHT22;8441;51.344;7.022;2024-03-29T02:29:21;8.30;99.90
16655;DHT22;8441;51.344;7.022;2024-03-29T02:31:48;8.40;99.90
16655;DHT22;8441;51.344;7.022;2024-03-29T02:34:15;8.50;99.90
16655;DHT22;8441;51.344;7.022;2024-03-29T02:36:44;8.60;99.90
16655;DHT22;8441;51.344;7.022;2024-03-29T02:39:12;8.60;99.90
16655;DHT22;8441;51.344;7.022;2024-03-29T02:41:41;8.60;99.90
16655;DHT22;8441;51.344;7.022;2024-03-29T02:44:08;8.80;99.90
16655;DHT22;8441;51.344;7.022;2024-03-29T02:46:36;8.90;99.90
16655;DHT22;8441;51.344;7.022;2024-03-29T02:49:04;8.90;99.90
16655;DHT22;8441;51.344;7.022;2024-03-29T02:51:30;9.00;99.90
16655;DHT22;8441;51.344;7.022;2024-03-29T02:53:57;8.90;99.90
16655;DHT22;8441;51.344;7.022;2024-03-29T02:56:23;8.90;99.90
16655;DHT22;8441;51.344;7.022;2024-03-29T02:58:55;9.00;99.90
16655;DHT22;8441;51.344;7.022;2024-03-29T03:01:21;8.90;99.90
16655;DHT22;8441;51.344;7.022;2024-03-29T03:03:48;8.90;99.90
16655;DHT22;8441;51.344;7.022;2024-03-29T03:06:14;8.90;99.90
16655;DHT22;8441;51.344;7.022;2024-03-29T03:08:42;8.80;99.90
16655;DHT22;8441;51.344;7.022;2024-03-29T03:11:26;8.80;99.90
16655;DHT22;8441;51.344;7.022;2024-03-29T03:13:55;8.80;99.90
16655;DHT22;8441;51.344;7.022;2024-03-29T03:16:22;8.80;99.90
16655;DHT22;8441;51.344;7.022;2024-03-29T03:18:50;8.80;99.90
16655;DHT22;8441;51.344;7.022;2024-03-29T03:21:17;8.80;99.90
16655;DHT22;8441;51.344;7.022;2024-03-29T03:23:44;8.70;99.90
16655;DHT22;8441;51.344;7.022;2024-03-29T03:26:11;8.60;99.90
16655;DHT22;8441;51.344;7.022;2024-03-29T03:28:37;8.50;99.90
16655;DHT22;8441;51.344;7.022;2024-03-29T03:31:06;8.50;99.90
16655;DHT22;8441;51.344;7.022;2024-03-29T03:33:33;8.40;99.90
16655;DHT22;8441;51.344;7.022;2024-03-29T03:36:00;8.50;99.90
16655;DHT22;8441;51.344;7.022;2024-03-29T03:38:26;8.50;99.90
16655;DHT22;8441;51.344;7.022;2024-03-29T03:40:54;8.40;99.90
16655;DHT22;8441;51.344;7.022;2024-03-29T03:43:20;8.40;99.90
16655;DHT22;8441;51.344;7.022;2024-03-29T03:45:47;8.50;99.90
16655;DHT22;8441;51.344;7.022;2024-03-29T03:48:15;8.40;99.90
16655;DHT22;8441;51.344;7.022;2024-03-29T03:50:42;8.40;99.90
16655;DHT22;8441;51.344;7.022;2024-03-29T03:53:09;8.40;99.90
16655;DHT22;8441;51.344;7.022;2024-03-29T03:55:36;8.50;99.90
16655;DHT22;8441;51.344;7.022;2024-03-29T03:58:03;8.50;99.90
16655;DHT22;8441;51.344;7.022;2024-03-29T04:00:31;8.50;99.90
16655;DHT22;8441;51.344;7.022;2024-03-29T04:02:57;8.50;99.90
16655;DHT22;8441;51.344;7.022;2024-03-29T04:05:25;8.50;99.90
16655;DHT22;8441;51.344;7.022;2024-03-29T04:07:52;8.40;99.90
16655;DHT22;8441;51.344;7.022;2024-03-29T04:10:19;8.40;99.90
16655;DHT22;8441;51.344;7.022;2024-03-29T04:12:45;8.40;99.90
16655;DHT22;8441;51.344;7.022;2024-03-29T04:15:13;8.40;99.90
16655;DHT22;8441;51.344;7.022;2024-03-29T04:17:39;8.40;99.90
16655;DHT22;8441;51.344;7.022;2024-03-29T04:20:07;8.40;99.90
16655;DHT22;8441;51.344;7.022;2024-03-29T04:22:35;8.40;99.90
16655;DHT22;8441;51.344;7.022;2024-03-29T04:25:02;8.30;99.90
16655;DHT22;8441;51.344;7.022;2024-03-29T04:27:29;8.30;99.90
16655;DHT22;8441;51.344;7.022;2024-03-29T04:29:56;8.30;99.90
16655;DHT22;8441;51.344;7.022;2024-03-29T04:32:22;8.40;99.90
16655;DHT22;8441;51.344;7.022;2024-03-29T04:34:50;8.40;99.90
16655;DHT22;8441;51.344;7.022;2024-03-29T04:37:17;8.30;99.90
16655;DHT22;8441;51.344;7.022;2024-03-29T04:39:46;8.30;99.90
16655;DHT22;8441;51.344;7.022;2024-03-29T04:42:13;8.20;99.90
16655;DHT22;8441;51.344;7.022;2024-03-29T04:44:40;8.10;99.90
16655;DHT22;8441;51.344;7.022;2024-03-29T04:47:08;8.00;99.90
16655;DHT22;8441;51.344;7.022;2024-03-29T04:49:35;8.00;99.90
16655;DHT22;8441;51.344;7.022;2024-03-29T04:52:04;7.90;99.90
16655;DHT22;8441;51.344;7.022;2024-03-29T04:54:31;7.90;99.90
16655;DHT22;8441;51.344;7.022;2024-03-29T04:57:00;7.90;99.90
16655;DHT22;8441;51.344;7.022;2024-03-29T04:59:29;7.80;99.90
16655;DHT22;8441;51.344;7.022;2024-03-29T05:01:58;7.70;99.90
16655;DHT22;8441;51.344;7.022;2024-03-29T05:04:25;7.60;99.90
16655;DHT22;8441;51.344;7.022;2024-03-29T05:06:53;7.50;99.90
16655;DHT22;8441;51.344;7.022;2024-03-29T05:09:21;7.40;99.90
16655;DHT22;8441;51.344;7.022;2024-03-29T05:11:48;7.20;99.90
16655;DHT22;8441;51.344;7.022;2024-03-29T05:14:17;7.20;99.90
16655;DHT22;8441;51.344;7.022;2024-03-29T05:16:45;7.10;99.90
16655;DHT22;8441;51.344;7.022;2024-03-29T05:19:13;7.10;99.90
16655;DHT22;8441;51.344;7.022;2024-03-29T05:21:40;7.10;99.90
16655;DHT22;8441;51.344;7.022;2024-03-29T05:24:08;7.00;99.90
16655;DHT22;8441;51.344;7.022;2024-03-29T05:26:35;7.00;99.90
16655;DHT22;8441;51.344;7.022;2024-03-29T05:29:03;7.00;99.90
16655;DHT22;8441;51.344;7.022;2024-03-29T05:31:32;7.00;99.90
16655;DHT22;8441;51.344;7.022;2024-03-29T05:33:59;7.00;99.90
16655;DHT22;8441;51.344;7.022;2024-03-29T05:36:27;7.10;99.90
16655;DHT22;8441;51.344;7.022;2024-03-29T05:38:55;7.10;99.90
16655;DHT22;8441;51.344;7.022;2024-03-29T05:41:22;7.10;99.90
16655;DHT22;8441;51.344;7.022;2024-03-29T05:43:50;7.10;99.90
16655;DHT22;8441;51.344;7.022;2024-03-29T05:46:17;7.10;99.90
16655;DHT22;8441;51.344;7.022;2024-03-29T05:48:46;7.10;99.90
16655;DHT22;8441;51.344;7.022;2024-03-29T05:51:14;7.20;99.90
16655;DHT22;8441;51.344;7.022;2024-03-29T05:53:41;7.20;99.90
16655;DHT22;8441;51.344;7.022;2024-03-29T05:56:08;7.20;99.90
16655;DHT22;8441;51.344;7.022;2024-03-29T05:58:36;7.20;99.90
16655;DHT22;8441;51.344;7.022;2024-03-29T06:01:03;7.20;99.90
16655;DHT22;8441;51.344;7.022;2024-03-29T06:03:30;7.30;99.90
16655;DHT22;8441;51.344;7.022;2024-03-29T06:05:59;7.40;99.90
16655;DHT22;8441;51.344;7.022;2024-03-29T06:08:26;7.40;99.90
16655;DHT22;8441;51.344;7.022;2024-03-29T06:10:53;7.40;99.90
16655;DHT22;8441;51.344;7.022;2024-03-29T06:13:21;7.50;99.90
16655;DHT22;8441;51.344;7.022;2024-03-29T06:16:11;7.50;99.90
16655;DHT22;8441;51.344;7.022;2024-03-29T06:18:56;7.60;99.90
16655;DHT22;8441;51.344;7.022;2024-03-29T06:21:24;7.60;99.90
16655;DHT22;8441;51.344;7.022;2024-03-29T06:23:51;7.60;99.90
16655;DHT22;8441;51.344;7.022;2024-03-29T06:26:19;7.70;99.90
16655;DHT22;8441;51.344;7.022;2024-03-29T06:28:46;7.70;99.90
16655;DHT22;8441;51.344;7.022;2024-03-29T06:31:14;7.70;99.90
16655;DHT22;8441;51.344;7.022;2024-03-29T06:33:41;7.70;99.90
16655;DHT22;8441;51.344;7.022;2024-03-29T06:36:08;7.80;99.90
16655;DHT22;8441;51.344;7.022;2024-03-29T06:38:37;7.80;99.90
16655;DHT22;8441;51.344;7.022;2024-03-29T06:41:04;7.80;99.90
16655;DHT22;8441;51.344;7.022;2024-03-29T06:43:32;7.90;99.90
16655;DHT22;8441;51.344;7.022;2024-03-29T06:45:59;8.00;99.90
16655;DHT22;8441;51.344;7.022;2024-03-29T06:48:28;8.00;99.90
16655;DHT22;8441;51.344;7.022;2024-03-29T06:50:57;8.10;99.90
16655;DHT22;8441;51.344;7.022;2024-03-29T06:53:24;8.20;99.90
16655;DHT22;8441;51.344;7.022;2024-03-29T06:55:54;8.30;99.90
16655;DHT22;8441;51.344;7.022;2024-03-29T06:58:22;8.40;99.90
16655;DHT22;8441;51.344;7.022;2024-03-29T07:00:49;8.40;99.90
16655;DHT22;8441;51.344;7.022;2024-03-29T07:03:18;8.40;99.90
16655;DHT22;8441;51.344;7.022;2024-03-29T07:05:46;8.50;99.90
16655;DHT22;8441;51.344;7.022;2024-03-29T07:08:13;8.50;99.90
16655;DHT22;8441;51.344;7.022;2024-03-29T07:10:40;8.50;99.90
16655;DHT22;8441;51.344;7.022;2024-03-29T07:13:09;8.50;99.90
16655;DHT22;8441;51.344;7.022;2024-03-29T07:15:36;8.60;99.90
16655;DHT22;8441;51.344;7.022;2024-03-29T07:18:05;8.60;99.90
16655;DHT22;8441;51.344;7.022;2024-03-29T07:20:32;8.70;99.90
16655;DHT22;8441;51.344;7.022;2024-03-29T07:23:00;8.80;99.90
16655;DHT22;8441;51.344;7.022;2024-03-29T07:25:27;8.90;99.90
16655;DHT22;8441;51.344;7.022;2024-03-29T07:27:55;9.00;99.90
16655;DHT22;8441;51.344;7.022;2024-03-29T07:30:23;9.00;99.90
16655;DHT22;8441;51.344;7.022;2024-03-29T07:32:50;9.00;99.90
16655;DHT22;8441;51.344;7.022;2024-03-29T07:35:18;9.00;99.90
16655;DHT22;8441;51.344;7.022;2024-03-29T07:37:45;9.00;99.90
16655;DHT22;8441;51.344;7.022;2024-03-29T07:40:15;9.10;99.90
16655;DHT22;8441;51.344;7.022;2024-03-29T07:42:42;9.20;99.90
16655;DHT22;8441;51.344;7.022;2024-03-29T07:45:09;9.20;99.90
16655;DHT22;8441;51.344;7.022;2024-03-29T07:47:38;9.20;99.90
16655;DHT22;8441;51.344;7.022;2024-03-29T07:50:06;9.20;99.90
16655;DHT22;8441;51.344;7.022;2024-03-29T07:52:35;9.20;99.90
16655;DHT22;8441;51.344;7.022;2024-03-29T07:55:03;9.20;99.90
16655;DHT22;8441;51.344;7.022;2024-03-29T07:57:30;9.20;99.90
16655;DHT22;8441;51.344;7.022;2024-03-29T07:59:57;9.20;99.90
16655;DHT22;8441;51.344;7.022;2024-03-29T08:02:24;9.10;99.90
16655;DHT22;8441;51.344;7.022;2024-03-29T08:04:54;9.10;99.90
16655;DHT22;8441;51.344;7.022;2024-03-29T08:07:21;9.10;99.90
16655;DHT22;8441;51.344;7.022;2024-03-29T08:09:49;9.20;99.90
16655;DHT22;8441;51.344;7.022;2024-03-29T08:12:17;9.20;99.90
16655;DHT22;8441;51.344;7.022;2024-03-29T08:14:44;9.20;99.90
16655;DHT22;8441;51.344;7.022;2024-03-29T08:17:12;9.30;99.90
16655;DHT22;8441;51.344;7.022;2024-03-29T08:19:40;9.30;99.90
16655;DHT22;8441;51.344;7.022;2024-03-29T08:22:09;9.40;99.90
16655;DHT22;8441;51.344;7.022;2024-03-29T08:24:37;9.40;99.90
16655;DHT22;8441;51.344;7.022;2024-03-29T08:27:05;9.40;99.90
16655;DHT22;8441;51.344;7.022;2024-03-29T08:29:32;9.50;99.90
16655;DHT22;8441;51.344;7.022;2024-03-29T08:31:59;9.60;99.90
16655;DHT22;8441;51.344;7.022;2024-03-29T08:34:26;9.60;99.90
16655;DHT22;8441;51.344;7.022;2024-03-29T08:37:00;9.60;99.90
16655;DHT22;8441;51.344;7.022;2024-03-29T08:39:36;9.60;99.90
16655;DHT22;8441;51.344;7.022;2024-03-29T08:42:04;9.70;99.90
16655;DHT22;8441;51.344;7.022;2024-03-29T08:44:32;9.70;99.90
16655;DHT22;8441;51.344;7.022;2024-03-29T08:46:59;9.60;99.90
16655;DHT22;8441;51.344;7.022;2024-03-29T08:49:28;9.70;99.90
16655;DHT22;8441;51.344;7.022;2024-03-29T08:51:56;9.70;99.90
16655;DHT22;8441;51.344;7.022;2024-03-29T08:54:25;9.90;99.90
16655;DHT22;8441;51.344;7.022;2024-03-29T08:56:56;9.90;99.90
16655;DHT22;8441;51.344;7.022;2024-03-29T08:59:23;10.00;99.90
16655;DHT22;8441;51.344;7.022;2024-03-29T09:01:50;10.00;99.90
16655;DHT22;8441;51.344;7.022;2024-03-29T09:04:18;10.10;99.90
16655;DHT22;8441;51.344;7.022;2024-03-29T09:06:46;10.00;99.90
16655;DHT22;8441;51.344;7.022;2024-03-29T09:09:13;10.00;99.90
16655;DHT22;8441;51.344;7.022;2024-03-29T09:11:40;10.10;99.90
16655;DHT22;8441;51.344;7.022;2024-03-29T09:14:09;10.20;99.90
16655;DHT22;8441;51.344;7.022;2024-03-29T09:16:38;10.10;99.90
16655;DHT22;8441;51.344;7.022;2024-03-29T09:19:07;10.20;99.90
16655;DHT22;8441;51.344;7.022;2024-03-29T09:21:34;10.30;99.90
16655;DHT22;8441;51.344;7.022;2024-03-29T09:24:01;10.40;99.90
16655;DHT22;8441;51.344;7.022;2024-03-29T09:26:29;10.60;99.90
16655;DHT22;8441;51.344;7.022;2024-03-29T09:28:56;10.70;99.90
16655;DHT22;8441;51.344;7.022;2024-03-29T09:31:25;10.90;99.90
16655;DHT22;8441;51.344;7.022;2024-03-29T09:33:53;10.90;99.90
16655;DHT22;8441;51.344;7.022;2024-03-29T09:36:23;11.10;99.90
16655;DHT22;8441;51.344;7.022;2024-03-29T09:38:51;11.30;99.90
16655;DHT22;8441;51.344;7.022;2024-03-29T09:41:19;11.50;99.90
16655;DHT22;8441;51.344;7.022;2024-03-29T09:43:47;11.60;99.90
16655;DHT22;8441;51.344;7.022;2024-03-29T09:46:15;11.80;99.90
16655;DHT22;8441;51.344;7.022;2024-03-29T09:48:45;12.00;99.90
16655;DHT22;8441;51.344;7.022;2024-03-29T09:51:13;12.10;99.90
16655;DHT22;8441;51.344;7.022;2024-03-29T09:53:42;12.00;99.90
16655;DHT22;8441;51.344;7.022;2024-03-29T09:56:09;12.30;99.90
16655;DHT22;8441;51.344;7.022;2024-03-29T09:58:39;12.50;99.90
16655;DHT22;8441;51.344;7.022;2024-03-29T10:01:07;12.60;99.90
16655;DHT22;8441;51.344;7.022;2024-03-29T10:03:39;12.70;99.90
16655;DHT22;8441;51.344;7.022;2024-03-29T10:06:08;12.70;99.90
16655;DHT22;8441;51.344;7.022;2024-03-29T10:08:38;12.80;99.90
16655;DHT22;8441;51.344;7.022;2024-03-29T10:11:05;12.70;99.90
16655;DHT22;8441;51.344;7.022;2024-03-29T10:13:33;12.70;99.90
16655;DHT22;8441;51.344;7.022;2024-03-29T10:16:01;12.70;99.90
16655;DHT22;8441;51.344;7.022;2024-03-29T10:18:29;12.70;99.90
16655;DHT22;8441;51.344;7.022;2024-03-29T10:21:00;12.70;99.90
16655;DHT22;8441;51.344;7.022;2024-03-29T10:23:30;12.70;99.90
16655;DHT22;8441;51.344;7.022;2024-03-29T10:25:58;12.70;99.90
16655;DHT22;8441;51.344;7.022;2024-03-29T10:28:30;12.60;99.90
16655;DHT22;8441;51.344;7.022;2024-03-29T10:30:57;12.60;99.90
16655;DHT22;8441;51.344;7.022;2024-03-29T10:33:28;12.60;99.90
16655;DHT22;8441;51.344;7.022;2024-03-29T10:35:56;12.60;99.90
16655;DHT22;8441;51.344;7.022;2024-03-29T10:38:24;12.60;99.90
16655;DHT22;8441;51.344;7.022;2024-03-29T10:40:54;12.60;99.90
16655;DHT22;8441;51.344;7.022;2024-03-29T10:43:21;12.70;99.90
16655;DHT22;8441;51.344;7.022;2024-03-29T10:45:50;12.60;99.90
16655;DHT22;8441;51.344;7.022;2024-03-29T10:48:21;12.60;99.90
16655;DHT22;8441;51.344;7.022;2024-03-29T10:50:49;12.70;99.90
16655;DHT22;8441;51.344;7.022;2024-03-29T10:53:18;12.80;99.90
16655;DHT22;8441;51.344;7.022;2024-03-29T10:55:45;12.80;99.90
16655;DHT22;8441;51.344;7.022;2024-03-29T10:58:16;12.90;99.90
16655;DHT22;8441;51.344;7.022;2024-03-29T11:00:47;12.90;99.90
16655;DHT22;8441;51.344;7.022;2024-03-29T11:03:19;12.80;99.90
16655;DHT22;8441;51.344;7.022;2024-03-29T11:05:48;12.80;99.90
16655;DHT22;8441;51.344;7.022;2024-03-29T11:08:21;13.10;99.90
16655;DHT22;8441;51.344;7.022;2024-03-29T11:10:50;13.50;99.90
16655;DHT22;8441;51.344;7.022;2024-03-29T11:13:26;14.00;99.90
16655;DHT22;8441;51.344;7.022;2024-03-29T11:16:00;14.30;99.90
16655;DHT22;8441;51.344;7.022;2024-03-29T11:18:28;14.50;99.90
16655;DHT22;8441;51.344;7.022;2024-03-29T11:20:56;14.70;99.90
16655;DHT22;8441;51.344;7.022;2024-03-29T11:23:25;14.90;99.90
16655;DHT22;8441;51.344;7.022;2024-03-29T11:25:55;15.00;99.90
16655;DHT22;8441;51.344;7.022;2024-03-29T11:28:26;15.10;99.90
16655;DHT22;8441;51.344;7.022;2024-03-29T11:30:59;15.20;99.90
16655;DHT22;8441;51.344;7.022;2024-03-29T11:33:31;15.30;99.90
16655;DHT22;8441;51.344;7.022;2024-03-29T11:36:00;15.20;99.90
16655;DHT22;8441;51.344;7.022;2024-03-29T11:38:32;15.10;99.90
16655;DHT22;8441;51.344;7.022;2024-03-29T11:41:03;14.80;99.90
16655;DHT22;8441;51.344;7.022;2024-03-29T11:43:33;14.70;99.90
16655;DHT22;8441;51.344;7.022;2024-03-29T11:46:01;14.20;99.90
16655;DHT22;8441;51.344;7.022;2024-03-29T11:48:30;14.10;99.90
16655;DHT22;8441;51.344;7.022;2024-03-29T11:50:58;14.10;99.90
16655;DHT22;8441;51.344;7.022;2024-03-29T11:53:26;14.10;99.90
16655;DHT22;8441;51.344;7.022;2024-03-29T11:55:55;14.20;99.90
16655;DHT22;8441;51.344;7.022;2024-03-29T11:58:23;14.10;99.90
16655;DHT22;8441;51.344;7.022;2024-03-29T12:00:53;14.20;99.90
16655;DHT22;8441;51.344;7.022;2024-03-29T12:03:21;14.20;99.90
16655;DHT22;8441;51.344;7.022;2024-03-29T12:05:50;14.20;99.90
16655;DHT22;8441;51.344;7.022;2024-03-29T12:08:18;14.20;99.90
16655;DHT22;8441;51.344;7.022;2024-03-29T12:10:45;14.30;99.90
16655;DHT22;8441;51.344;7.022;2024-03-29T12:13:15;14.10;99.90
16655;DHT22;8441;51.344;7.022;2024-03-29T12:15:43;14.00;99.90
16655;DHT22;8441;51.344;7.022;2024-03-29T12:18:12;13.90;99.90
16655;DHT22;8441;51.344;7.022;2024-03-29T12:20:42;13.70;99.90
16655;DHT22;8441;51.344;7.022;2024-03-29T12:23:12;13.50;99.90
16655;DHT22;8441;51.344;7.022;2024-03-29T12:25:40;13.40;99.90
16655;DHT22;8441;51.344;7.022;2024-03-29T12:28:11;13.50;99.90
16655;DHT22;8441;51.344;7.022;2024-03-29T12:30:41;13.70;99.90
16655;DHT22;8441;51.344;7.022;2024-03-29T12:33:13;13.90;99.90
16655;DHT22;8441;51.344;7.022;2024-03-29T12:35:42;14.00;99.90
16655;DHT22;8441;51.344;7.022;2024-03-29T12:38:12;14.20;99.90
16655;DHT22;8441;51.344;7.022;2024-03-29T12:40:41;14.30;99.90
16655;DHT22;8441;51.344;7.022;2024-03-29T12:43:10;14.40;99.90
16655;DHT22;8441;51.344;7.022;2024-03-29T12:45:39;14.60;99.90
16655;DHT22;8441;51.344;7.022;2024-03-29T12:48:10;14.60;99.90
16655;DHT22;8441;51.344;7.022;2024-03-29T12:50:41;14.60;99.90
16655;DHT22;8441;51.344;7.022;2024-03-29T12:53:09;14.50;99.90
16655;DHT22;8441;51.344;7.022;2024-03-29T12:55:39;14.50;99.90
16655;DHT22;8441;51.344;7.022;2024-03-29T12:58:10;14.40;99.90
16655;DHT22;8441;51.344;7.022;2024-03-29T13:00:37;14.30;99.90
16655;DHT22;8441;51.344;7.022;2024-03-29T13:03:05;14.10;99.90
16655;DHT22;8441;51.344;7.022;2024-03-29T13:05:34;14.10;99.90
16655;DHT22;8441;51.344;7.022;2024-03-29T13:08:06;14.20;99.90
16655;DHT22;8441;51.344;7.022;2024-03-29T13:10:35;14.50;99.90
16655;DHT22;8441;51.344;7.022;2024-03-29T13:13:02;14.60;99.90
16655;DHT22;8441;51.344;7.022;2024-03-29T13:15:32;14.70;99.90
16655;DHT22;8441;51.344;7.022;2024-03-29T13:18:00;14.70;99.90
16655;DHT22;8441;51.344;7.022;2024-03-29T13:20:27;14.90;99.90
16655;DHT22;8441;51.344;7.022;2024-03-29T13:22:55;15.10;99.90
16655;DHT22;8441;51.344;7.022;2024-03-29T13:25:25;15.40;99.90
16655;DHT22;8441;51.344;7.022;2024-03-29T13:27:54;15.50;99.90
16655;DHT22;8441;51.344;7.022;2024-03-29T13:30:22;15.20;99.90
16655;DHT22;8441;51.344;7.022;2024-03-29T13:32:50;15.10;99.90
16655;DHT22;8441;51.344;7.022;2024-03-29T13:35:17;15.00;99.90
16655;DHT22;8441;51.344;7.022;2024-03-29T13:37:48;15.10;99.90
16655;DHT22;8441;51.344;7.022;2024-03-29T13:40:16;15.10;99.90
16655;DHT22;8441;51.344;7.022;2024-03-29T13:42:45;15.10;99.90
16655;DHT22;8441;51.344;7.022;2024-03-29T13:45:12;15.10;99.90
16655;DHT22;8441;51.344;7.022;2024-03-29T13:47:41;15.20;99.90
16655;DHT22;8441;51.344;7.022;2024-03-29T13:50:10;15.10;99.90
16655;DHT22;8441;51.344;7.022;2024-03-29T13:52:38;15.40;99.90
16655;DHT22;8441;51.344;7.022;2024-03-29T13:55:06;15.90;99.90
16655;DHT22;8441;51.344;7.022;2024-03-29T13:57:33;16.10;99.90
16655;DHT22;8441;51.344;7.022;2024-03-29T14:00:02;16.30;99.90
16655;DHT22;8441;51.344;7.022;2024-03-29T14:02:31;16.10;99.90
16655;DHT22;8441;51.344;7.022;2024-03-29T14:04:59;15.70;99.90
16655;DHT22;8441;51.344;7.022;2024-03-29T14:07:26;15.40;99.90
16655;DHT22;8441;51.344;7.022;2024-03-29T14:09:54;15.40;99.90
16655;DHT22;8441;51.344;7.022;2024-03-29T14:12:21;15.30;99.90
16655;DHT22;8441;51.344;7.022;2024-03-29T14:14:51;15.20;99.90
16655;DHT22;8441;51.344;7.022;2024-03-29T14:17:20;15.10;99.90
16655;DHT22;8441;51.344;7.022;2024-03-29T14:19:47;15.10;99.90
16655;DHT22;8441;51.344;7.022;2024-03-29T14:22:15;15.10;99.90
16655;DHT22;8441;51.344;7.022;2024-03-29T14:24:45;14.90;99.90
16655;DHT22;8441;51.344;7.022;2024-03-29T14:27:12;14.90;99.90
16655;DHT22;8441;51.344;7.022;2024-03-29T14:29:40;15.10;99.90
16655;DHT22;8441;51.344;7.022;2024-03-29T14:32:10;15.30;99.90
16655;DHT22;8441;51.344;7.022;2024-03-29T14:34:39;15.50;99.90
16655;DHT22;8441;51.344;7.022;2024-03-29T14:37:12;15.70;99.90
16655;DHT22;8441;51.344;7.022;2024-03-29T14:39:42;15.70;99.90
16655;DHT22;8441;51.344;7.022;2024-03-29T14:42:10;15.70;99.90
16655;DHT22;8441;51.344;7.022;2024-03-29T14:44:39;15.90;99.90
16655;DHT22;8441;51.344;7.022;2024-03-29T14:47:07;16.10;99.90
16655;DHT22;8441;51.344;7.022;2024-03-29T14:49:35;16.10;99.90
16655;DHT22;8441;51.344;7.022;2024-03-29T14:52:04;16.10;99.90
16655;DHT22;8441;51.344;7.022;2024-03-29T14:54:31;16.00;99.90
16655;DHT22;8441;51.344;7.022;2024-03-29T14:56:59;15.90;99.90
16655;DHT22;8441;51.344;7.022;2024-03-29T14:59:26;15.90;99.90
16655;DHT22;8441;51.344;7.022;2024-03-29T15:01:55;15.70;99.90
16655;DHT22;8441;51.344;7.022;2024-03-29T15:04:23;15.60;99.90
16655;DHT22;8441;51.344;7.022;2024-03-29T15:06:50;15.40;99.90
16655;DHT22;8441;51.344;7.022;2024-03-29T15:09:19;15.30;99.90
16655;DHT22;8441;51.344;7.022;2024-03-29T15:11:46;15.50;99.90
16655;DHT22;8441;51.344;7.022;2024-03-29T15:14:14;15.40;99.90
16655;DHT22;8441;51.344;7.022;2024-03-29T15:16:42;15.40;99.90
16655;DHT22;8441;51.344;7.022;2024-03-29T15:19:10;15.50;99.90
16655;DHT22;8441;51.344;7.022;2024-03-29T15:21:37;15.40;99.90
16655;DHT22;8441;51.344;7.022;2024-03-29T15:24:06;15.30;99.90
16655;DHT22;8441;51.344;7.022;2024-03-29T15:26:35;15.00;99.90
16655;DHT22;8441;51.344;7.022;2024-03-29T15:29:03;15.00;99.90
16655;DHT22;8441;51.344;7.022;2024-03-29T15:31:34;15.00;99.90
16655;DHT22;8441;51.344;7.022;2024-03-29T15:34:01;14.90;99.90
16655;DHT22;8441;51.344;7.022;2024-03-29T15:36:30;14.70;99.90
16655;DHT22;8441;51.344;7.022;2024-03-29T15:38:58;14.50;99.90
16655;DHT22;8441;51.344;7.022;2024-03-29T15:41:31;14.40;99.90
16655;DHT22;8441;51.344;7.022;2024-03-29T15:44:00;14.30;99.90
16655;DHT22;8441;51.344;7.022;2024-03-29T15:46:28;14.20;99.90
16655;DHT22;8441;51.344;7.022;2024-03-29T15:48:56;14.20;99.90
16655;DHT22;8441;51.344;7.022;2024-03-29T15:51:24;14.10;99.90
16655;DHT22;8441;51.344;7.022;2024-03-29T15:53:51;14.10;99.90
16655;DHT22;8441;51.344;7.022;2024-03-29T15:56:21;14.00;99.90
16655;DHT22;8441;51.344;7.022;2024-03-29T15:58:49;13.90;99.90
16655;DHT22;8441;51.344;7.022;2024-03-29T16:01:18;13.80;99.90